createdAt,value
2023-01-22T00:00:17.098Z,102784.34
2023-01-22T00:02:45.082Z,102779.47
2023-01-22T00:05:14.216Z,102781.25
2023-01-22T00:07:42.166Z,102779.59
2023-01-22T00:10:12.031Z,102781.09
2023-01-22T00:12:39.816Z,102778.72
2023-01-22T00:15:08.839Z,102776.19
2023-01-22T00:17:37.736Z,102767.47
2023-01-22T00:20:06.749Z,102776.53
2023-01-22T00:22:36.860Z,102771.97
2023-01-22T00:25:05.354Z,102779.47
2023-01-22T00:27:33.058Z,102778.47
2023-01-22T00:30:00.877Z,102770.31
2023-01-22T00:32:28.567Z,102773.16
2023-01-22T00:34:56.289Z,102779.00
2023-01-22T00:37:24.058Z,102770.69
2023-01-22T00:39:53.207Z,102763.31
2023-01-22T00:42:20.920Z,102758.53
2023-01-22T00:44:48.621Z,102764.88
2023-01-22T00:47:16.444Z,102762.13
2023-01-22T00:49:44.212Z,102764.50
2023-01-22T00:52:12.237Z,102756.25
2023-01-22T00:54:40.000Z,102761.00
2023-01-22T00:57:09.167Z,102766.13
2023-01-22T00:59:36.869Z,102764.56
2023-01-22T01:02:06.551Z,102761.38
2023-01-22T01:04:34.463Z,102765.69
2023-01-22T01:07:02.201Z,102766.72
2023-01-22T01:09:30.032Z,102761.50
2023-01-22T01:11:57.754Z,102762.47
2023-01-22T01:14:26.964Z,102775.03
2023-01-22T01:16:56.734Z,102760.41
2023-01-22T01:19:24.576Z,102760.31
2023-01-22T01:21:52.540Z,102759.16
2023-01-22T01:24:20.223Z,102748.78
2023-01-22T01:26:48.015Z,102756.03
2023-01-22T01:29:16.001Z,102754.78
2023-01-22T01:31:45.804Z,102747.97
2023-01-22T01:34:13.852Z,102756.63
2023-01-22T01:36:49.709Z,102755.28
2023-01-22T01:39:17.876Z,102755.81
2023-01-22T01:41:45.971Z,102757.88
2023-01-22T01:44:15.724Z,102763.03
2023-01-22T01:46:48.974Z,102754.06
2023-01-22T01:49:21.057Z,102753.41
2023-01-22T01:51:49.790Z,102755.13
2023-01-22T01:54:18.297Z,102754.38
2023-01-22T01:56:51.491Z,102756.53
2023-01-22T01:59:22.071Z,102756.31
2023-01-22T02:01:54.858Z,102763.19
2023-01-22T02:04:24.707Z,102761.38
2023-01-22T02:06:52.511Z,102767.75
2023-01-22T02:09:20.445Z,102760.53
2023-01-22T02:11:48.595Z,102767.81
2023-01-22T02:14:20.230Z,102757.59
2023-01-22T02:16:48.042Z,102769.72
2023-01-22T02:19:17.326Z,102780.22
2023-01-22T02:21:46.603Z,102770.31
2023-01-22T02:24:17.051Z,102777.63
2023-01-22T02:26:46.750Z,102781.75
2023-01-22T02:29:15.567Z,102781.19
2023-01-22T02:31:43.742Z,102784.41
2023-01-22T02:34:12.336Z,102779.31
2023-01-22T02:36:41.176Z,102774.28
2023-01-22T02:39:10.372Z,102772.16
2023-01-22T02:41:38.168Z,102775.66
2023-01-22T02:44:07.407Z,102770.91
2023-01-22T02:46:35.561Z,102775.25
2023-01-22T02:49:03.767Z,102782.44
2023-01-22T02:51:31.557Z,102783.59
2023-01-22T02:53:59.336Z,102780.31
2023-01-22T02:56:28.489Z,102781.31
2023-01-22T02:58:56.181Z,102786.50
2023-01-22T03:01:25.674Z,102785.50
2023-01-22T03:03:55.367Z,102780.81
2023-01-22T03:06:25.059Z,102787.09
2023-01-22T03:08:55.325Z,102790.66
2023-01-22T03:11:24.080Z,102793.22
2023-01-22T03:14:11.127Z,102804.94
2023-01-22T03:16:56.434Z,102797.00
2023-01-22T03:19:42.457Z,102796.16
2023-01-22T03:22:10.922Z,102787.84
2023-01-22T03:24:38.669Z,102793.91
2023-01-22T03:27:06.811Z,102790.47
2023-01-22T03:29:38.315Z,102788.78
2023-01-22T03:32:07.155Z,102788.06
2023-01-22T03:34:35.200Z,102780.78
2023-01-22T03:37:03.560Z,102790.22
2023-01-22T03:39:32.544Z,102792.78
2023-01-22T03:42:00.368Z,102793.22
2023-01-22T03:44:28.172Z,102796.22
2023-01-22T03:46:57.531Z,102792.28
2023-01-22T03:49:25.291Z,102788.25
2023-01-22T03:51:53.124Z,102792.00
2023-01-22T03:54:20.925Z,102792.06
2023-01-22T03:56:48.665Z,102787.69
2023-01-22T03:59:16.440Z,102795.72
2023-01-22T04:01:44.357Z,102793.00
2023-01-22T04:04:13.534Z,102794.16
2023-01-22T04:06:41.333Z,102798.03
2023-01-22T04:09:09.037Z,102793.00
2023-01-22T04:11:36.878Z,102792.88
2023-01-22T04:14:04.581Z,102792.63
2023-01-22T04:16:32.340Z,102790.94
2023-01-22T04:19:00.111Z,102784.75
2023-01-22T04:21:29.231Z,102787.56
2023-01-22T04:23:57.514Z,102788.13
2023-01-22T04:26:25.440Z,102794.84
2023-01-22T04:28:53.188Z,102786.31
2023-01-22T04:31:21.118Z,102785.84
2023-01-22T04:33:49.015Z,102772.66
2023-01-22T04:36:18.086Z,102781.94
2023-01-22T04:38:47.225Z,102771.34
2023-01-22T04:41:15.017Z,102768.28
2023-01-22T04:43:42.719Z,102770.78
2023-01-22T04:46:10.577Z,102762.72
2023-01-22T04:48:38.401Z,102770.56
2023-01-22T04:51:06.430Z,102762.59
2023-01-22T04:53:34.239Z,102750.81
2023-01-22T04:56:03.338Z,102741.69
2023-01-22T04:58:31.124Z,102742.91
2023-01-22T05:00:59.200Z,102746.47
2023-01-22T05:03:26.991Z,102735.78
2023-01-22T05:05:54.720Z,102742.44
2023-01-22T05:08:22.600Z,102747.22
2023-01-22T05:10:50.383Z,102745.41
2023-01-22T05:13:19.458Z,102747.50
2023-01-22T05:15:47.220Z,102747.84
2023-01-22T05:18:14.978Z,102763.75
2023-01-22T05:20:42.758Z,102760.94
2023-01-22T05:23:10.522Z,102760.72
2023-01-22T05:25:38.336Z,102759.63
2023-01-22T05:28:06.526Z,102762.59
2023-01-22T05:30:35.837Z,102763.03
2023-01-22T05:33:03.639Z,102765.94
2023-01-22T05:35:31.485Z,102771.50
2023-01-22T05:37:59.215Z,102767.22
2023-01-22T05:40:27.033Z,102762.28
2023-01-22T05:42:55.108Z,102755.09
2023-01-22T05:45:22.954Z,102762.81
2023-01-22T05:47:54.325Z,102762.91
2023-01-22T05:50:22.751Z,102767.69
2023-01-22T05:52:55.426Z,102767.88
2023-01-22T05:55:23.328Z,102779.00
2023-01-22T05:57:51.281Z,102778.88
2023-01-22T06:00:19.909Z,102771.69
2023-01-22T06:02:48.590Z,102776.63
2023-01-22T06:05:17.927Z,102774.88
2023-01-22T06:07:45.636Z,102774.63
2023-01-22T06:10:13.509Z,102775.63
2023-01-22T06:12:41.234Z,102763.88
2023-01-22T06:15:10.333Z,102761.38
2023-01-22T06:17:38.094Z,102762.16
2023-01-22T06:20:06.716Z,102762.78
2023-01-22T06:22:35.868Z,102759.97
2023-01-22T06:25:03.910Z,102753.13
2023-01-22T06:27:31.656Z,102755.13
2023-01-22T06:29:59.434Z,102759.69
2023-01-22T06:32:27.328Z,102766.34
2023-01-22T06:34:55.060Z,102765.22
2023-01-22T06:37:22.952Z,102776.16
2023-01-22T06:39:52.214Z,102771.50
2023-01-22T06:42:20.039Z,102767.38
2023-01-22T06:44:47.880Z,102773.56
2023-01-22T06:47:15.669Z,102773.72
2023-01-22T06:49:43.368Z,102771.63
2023-01-22T06:52:11.116Z,102771.16
2023-01-22T06:54:38.887Z,102776.94
2023-01-22T06:57:08.101Z,102783.88
2023-01-22T06:59:37.180Z,102786.56
2023-01-22T07:02:05.253Z,102780.50
2023-01-22T07:04:33.105Z,102783.97
2023-01-22T07:07:00.802Z,102794.72
2023-01-22T07:09:28.479Z,102791.72
2023-01-22T07:11:57.415Z,102786.47
2023-01-22T07:14:36.576Z,102798.28
2023-01-22T07:17:05.137Z,102803.31
2023-01-22T07:19:33.127Z,102803.16
2023-01-22T07:22:01.088Z,102799.97
2023-01-22T07:24:28.793Z,102797.06
2023-01-22T07:26:56.580Z,102793.91
2023-01-22T07:29:24.350Z,102798.66
2023-01-22T07:31:53.503Z,102806.72
2023-01-22T07:34:21.468Z,102801.59
2023-01-22T07:36:49.283Z,102806.19
2023-01-22T07:39:17.124Z,102814.94
2023-01-22T07:41:44.982Z,102814.94
2023-01-22T07:44:13.243Z,102813.56
2023-01-22T07:46:41.150Z,102817.44
2023-01-22T07:49:11.760Z,102819.31
2023-01-22T07:51:39.573Z,102821.06
2023-01-22T07:54:07.327Z,102821.50
2023-01-22T07:56:35.073Z,102827.06
2023-01-22T07:59:02.843Z,102833.72
2023-01-22T08:01:30.660Z,102833.91
2023-01-22T08:03:58.439Z,102839.91
2023-01-22T08:06:27.621Z,102837.72
2023-01-22T08:08:55.321Z,102841.91
2023-01-22T08:11:23.127Z,102842.56
2023-01-22T08:13:50.845Z,102851.66
2023-01-22T08:16:18.698Z,102848.03
2023-01-22T08:18:46.479Z,102853.25
2023-01-22T08:21:14.598Z,102858.97
2023-01-22T08:23:47.546Z,102856.59
2023-01-22T08:26:16.695Z,102856.34
2023-01-22T08:28:44.524Z,102870.19
2023-01-22T08:31:26.314Z,102869.19
2023-01-22T08:33:55.442Z,102863.22
2023-01-22T08:36:23.271Z,102865.81
2023-01-22T08:38:52.390Z,102865.44
2023-01-22T08:41:20.163Z,102862.16
2023-01-22T08:43:47.855Z,102869.66
2023-01-22T08:46:15.794Z,102873.06
2023-01-22T08:48:44.352Z,102885.75
2023-01-22T08:51:12.483Z,102883.44
2023-01-22T08:53:40.315Z,102887.81
2023-01-22T08:56:09.758Z,102886.88
2023-01-22T08:58:37.479Z,102877.06
2023-01-22T09:01:05.578Z,102877.56
2023-01-22T09:03:33.317Z,102887.50
2023-01-22T09:06:01.107Z,102886.50
2023-01-22T09:08:28.871Z,102880.59
2023-01-22T09:10:56.650Z,102882.88
2023-01-22T09:13:25.790Z,102886.34
2023-01-22T09:15:58.519Z,102895.00
2023-01-22T09:18:26.815Z,102900.13
2023-01-22T09:20:54.593Z,102900.47
2023-01-22T09:23:22.601Z,102886.41
2023-01-22T09:25:50.412Z,102892.75
2023-01-22T09:28:18.156Z,102898.00
2023-01-22T09:30:47.305Z,102899.31
2023-01-22T09:33:15.132Z,102899.34
2023-01-22T09:35:42.864Z,102900.97
2023-01-22T09:38:14.073Z,102902.66
2023-01-22T09:40:46.524Z,102907.22
2023-01-22T09:43:25.780Z,102916.13
2023-01-22T09:45:57.978Z,102893.53
2023-01-22T09:48:33.058Z,102899.06
2023-01-22T09:51:01.097Z,102900.03
2023-01-22T09:53:30.828Z,102895.91
2023-01-22T09:55:59.225Z,102893.19
2023-01-22T09:58:27.978Z,102901.75
2023-01-22T10:01:00.542Z,102917.66
2023-01-22T10:03:33.499Z,102918.47
2023-01-22T10:06:05.629Z,102920.66
2023-01-22T10:08:35.667Z,102918.84
2023-01-22T10:11:04.140Z,102920.56
2023-01-22T10:13:34.940Z,102920.44
2023-01-22T10:16:04.764Z,102921.69
2023-01-22T10:18:40.870Z,102923.66
2023-01-22T10:21:18.712Z,102923.78
2023-01-22T10:23:47.031Z,102923.44
2023-01-22T10:26:18.727Z,102924.47
2023-01-22T10:28:49.079Z,102924.13
2023-01-22T10:31:26.270Z,102924.13
2023-01-22T10:33:59.452Z,102923.59
2023-01-22T10:36:27.518Z,102932.50
2023-01-22T10:39:12.153Z,102928.59
2023-01-22T10:41:40.955Z,102931.16
2023-01-22T10:44:10.441Z,102927.06
2023-01-22T10:46:39.669Z,102926.22
2023-01-22T10:49:08.426Z,102931.69
2023-01-22T10:51:38.756Z,102927.25
2023-01-22T10:54:20.819Z,102929.91
2023-01-22T10:56:49.755Z,102925.47
2023-01-22T10:59:22.998Z,102915.91
2023-01-22T11:01:58.448Z,102911.78
2023-01-22T11:04:28.401Z,102900.88
2023-01-22T11:06:59.075Z,102897.84
2023-01-22T11:09:33.782Z,102889.47
2023-01-22T11:12:10.758Z,102891.22
2023-01-22T11:14:40.489Z,102889.16
2023-01-22T11:17:18.996Z,102881.03
2023-01-22T11:19:55.162Z,102874.25
2023-01-22T11:22:27.716Z,102878.84
2023-01-22T11:24:55.499Z,102881.72
2023-01-22T11:27:45.871Z,102884.63
2023-01-22T11:30:38.555Z,102883.19
2023-01-22T11:33:21.053Z,102885.94
2023-01-22T11:35:54.744Z,102881.44
2023-01-22T11:38:30.928Z,102885.47
2023-01-22T11:41:14.349Z,102877.38
2023-01-22T11:43:56.674Z,102877.19
2023-01-22T11:46:39.006Z,102874.44
2023-01-22T11:49:19.316Z,102876.38
2023-01-22T11:51:56.561Z,102876.63
2023-01-22T11:54:35.189Z,102878.94
2023-01-22T11:57:18.041Z,102883.91
2023-01-22T12:00:04.515Z,102876.03
2023-01-22T12:02:50.507Z,102869.69
2023-01-22T12:05:33.197Z,102872.06
2023-01-22T12:08:14.700Z,102872.00
2023-01-22T12:10:57.494Z,102870.19
2023-01-22T12:13:43.822Z,102873.97
2023-01-22T12:16:22.358Z,102866.63
2023-01-22T12:19:12.994Z,102869.56
2023-01-22T12:21:54.118Z,102867.59
2023-01-22T12:24:27.919Z,102859.63
2023-01-22T12:27:02.434Z,102854.00
2023-01-22T12:29:34.009Z,102856.72
2023-01-22T12:32:08.959Z,102850.53
2023-01-22T12:34:42.888Z,102850.69
2023-01-22T12:37:17.033Z,102850.03
2023-01-22T12:39:51.711Z,102840.25
2023-01-22T12:42:31.982Z,102845.50
2023-01-22T12:45:08.212Z,102847.28
2023-01-22T12:47:42.025Z,102840.50
2023-01-22T12:50:18.815Z,102843.34
2023-01-22T12:52:59.540Z,102838.94
2023-01-22T12:55:34.840Z,102831.97
2023-01-22T12:58:03.476Z,102828.44
2023-01-22T13:00:35.502Z,102832.75
2023-01-22T13:03:05.127Z,102835.53
2023-01-22T13:05:42.485Z,102835.47
2023-01-22T13:08:26.341Z,102829.25
2023-01-22T13:10:55.563Z,102823.09
2023-01-22T13:13:27.697Z,102821.31
2023-01-22T13:15:58.649Z,102821.41
2023-01-22T13:18:29.163Z,102821.31
2023-01-22T13:21:02.798Z,102816.91
2023-01-22T13:23:34.269Z,102812.50
2023-01-22T13:26:02.960Z,102813.38
2023-01-22T13:28:31.431Z,102811.66
2023-01-22T13:31:01.982Z,102807.25
2023-01-22T13:33:30.147Z,102823.16
2023-01-22T13:35:59.678Z,102817.84
2023-01-22T13:38:29.656Z,102814.34
2023-01-22T13:41:00.948Z,102829.47
2023-01-22T13:43:29.227Z,102830.31
2023-01-22T13:45:58.151Z,102823.22
2023-01-22T13:48:27.662Z,102820.53
2023-01-22T13:50:58.573Z,102822.28
2023-01-22T13:53:31.751Z,102824.06
2023-01-22T13:56:01.487Z,102820.44
2023-01-22T13:58:47.149Z,102817.84
2023-01-22T14:01:28.067Z,102821.41
2023-01-22T14:04:00.298Z,102823.16
2023-01-22T14:06:28.758Z,102817.09
2023-01-22T14:08:58.775Z,102821.47
2023-01-22T14:11:39.649Z,102818.84
2023-01-22T14:14:17.419Z,102826.81
2023-01-22T14:16:45.391Z,102825.91
2023-01-22T14:19:13.501Z,102837.34
2023-01-22T14:21:41.221Z,102837.44
2023-01-22T14:24:09.703Z,102823.22
2023-01-22T14:26:38.909Z,102824.13
2023-01-22T14:29:06.755Z,102819.69
2023-01-22T14:31:34.478Z,102819.75
2023-01-22T14:34:02.316Z,102821.41
2023-01-22T14:36:30.167Z,102814.38
2023-01-22T14:38:58.878Z,102805.56
2023-01-22T14:41:26.729Z,102809.97
2023-01-22T14:43:56.772Z,102807.34
2023-01-22T14:46:24.600Z,102807.28
2023-01-22T14:48:52.410Z,102796.72
2023-01-22T14:51:20.198Z,102796.72
2023-01-22T14:53:47.923Z,102797.63
2023-01-22T14:56:15.678Z,102793.16
2023-01-22T14:58:43.483Z,102796.66
2023-01-22T15:01:20.544Z,102794.91
2023-01-22T15:03:48.465Z,102799.34
2023-01-22T15:06:16.250Z,102789.66
2023-01-22T15:08:44.066Z,102795.84
2023-01-22T15:11:11.947Z,102794.97
2023-01-22T15:13:39.674Z,102795.81
2023-01-22T15:16:09.144Z,102798.44
2023-01-22T15:18:39.654Z,102791.38
2023-01-22T15:21:08.172Z,102793.19
2023-01-22T15:23:35.996Z,102789.63
2023-01-22T15:26:06.003Z,102791.41
2023-01-22T15:28:34.003Z,102794.94
2023-01-22T15:31:07.575Z,102790.47
2023-01-22T15:33:35.485Z,102794.03
2023-01-22T15:36:05.898Z,102794.94
2023-01-22T15:38:33.671Z,102804.53
2023-01-22T15:41:07.050Z,102804.50
2023-01-22T15:43:34.906Z,102810.72
2023-01-22T15:46:02.805Z,102810.63
2023-01-22T15:48:30.569Z,102808.91
2023-01-22T15:51:09.040Z,102809.78
2023-01-22T15:53:36.926Z,102811.59
2023-01-22T15:56:06.389Z,102815.97
2023-01-22T15:58:34.876Z,102818.66
2023-01-22T16:01:03.010Z,102823.94
2023-01-22T16:03:31.151Z,102829.25
2023-01-22T16:06:10.524Z,102830.00
2023-01-22T16:08:38.353Z,102825.78
2023-01-22T16:11:06.822Z,102825.69
2023-01-22T16:13:34.909Z,102827.50
2023-01-22T16:16:04.784Z,102826.59
2023-01-22T16:18:33.327Z,102833.69
2023-01-22T16:21:01.905Z,102833.69
2023-01-22T16:23:31.631Z,102838.88
2023-01-22T16:26:01.122Z,102840.59
2023-01-22T16:28:28.947Z,102838.84
2023-01-22T16:30:56.852Z,102836.25
2023-01-22T16:33:28.823Z,102840.63
2023-01-22T16:36:00.264Z,102838.84
2023-01-22T16:38:28.665Z,102829.06
2023-01-22T16:41:08.869Z,102831.63
2023-01-22T16:43:37.160Z,102834.19
2023-01-22T16:46:05.246Z,102837.53
2023-01-22T16:48:33.147Z,102837.47
2023-01-22T16:51:01.027Z,102841.91
2023-01-22T16:53:28.854Z,102840.09
2023-01-22T16:55:58.056Z,102840.09
2023-01-22T16:58:25.773Z,102837.53
2023-01-22T17:00:53.650Z,102844.63
2023-01-22T17:03:21.369Z,102847.34
2023-01-22T17:05:49.937Z,102844.72
2023-01-22T17:08:17.640Z,102848.28
2023-01-22T17:10:45.362Z,102851.88
2023-01-22T17:13:14.521Z,102856.31
2023-01-22T17:15:43.707Z,102853.69
2023-01-22T17:18:11.460Z,102863.16
2023-01-22T17:20:39.313Z,102856.88
2023-01-22T17:23:07.427Z,102861.16
2023-01-22T17:25:35.205Z,102858.28
2023-01-22T17:28:02.984Z,102869.53
2023-01-22T17:30:32.126Z,102873.59
2023-01-22T17:32:59.866Z,102862.41
2023-01-22T17:35:27.671Z,102860.66
2023-01-22T17:37:55.397Z,102856.50
2023-01-22T17:40:23.095Z,102860.13
2023-01-22T17:42:50.816Z,102857.44
2023-01-22T17:45:19.021Z,102858.34
2023-01-22T17:47:48.369Z,102873.22
2023-01-22T17:50:16.945Z,102873.13
2023-01-22T17:52:44.772Z,102876.56
2023-01-22T17:55:12.658Z,102872.13
2023-01-22T17:57:41.454Z,102877.22
2023-01-22T18:00:11.095Z,102877.31
2023-01-22T18:02:38.932Z,102876.66
2023-01-22T18:05:10.399Z,102874.88
2023-01-22T18:07:38.301Z,102878.16
2023-01-22T18:10:06.593Z,102880.72
2023-01-22T18:12:34.434Z,102878.22
2023-01-22T18:15:02.184Z,102883.59
2023-01-22T18:17:29.936Z,102897.56
2023-01-22T18:19:57.838Z,102887.19
2023-01-22T18:22:26.969Z,102887.41
2023-01-22T18:24:54.826Z,102889.94
2023-01-22T18:27:22.574Z,102887.25
2023-01-22T18:29:50.411Z,102892.47
2023-01-22T18:32:18.644Z,102892.41
2023-01-22T18:34:46.611Z,102893.94
2023-01-22T18:37:14.327Z,102896.53
2023-01-22T18:39:43.574Z,102884.34
2023-01-22T18:42:11.378Z,102894.78
2023-01-22T18:44:39.853Z,102896.16
2023-01-22T18:47:11.068Z,102890.84
2023-01-22T18:49:38.999Z,102882.75
2023-01-22T18:52:06.819Z,102893.31
2023-01-22T18:54:34.561Z,102892.31
2023-01-22T18:57:03.652Z,102909.28
2023-01-22T18:59:31.535Z,102898.78
2023-01-22T19:02:00.033Z,102898.88
2023-01-22T19:04:28.985Z,102904.75
2023-01-22T19:06:57.278Z,102901.97
2023-01-22T19:09:26.837Z,102899.38
2023-01-22T19:11:55.608Z,102900.44
2023-01-22T19:14:25.177Z,102904.13
2023-01-22T19:16:54.211Z,102894.44
2023-01-22T19:19:22.901Z,102893.50
2023-01-22T19:21:54.725Z,102889.81
2023-01-22T19:24:24.920Z,102881.75
2023-01-22T19:26:54.700Z,102879.94
2023-01-22T19:29:25.317Z,102878.25
2023-01-22T19:31:54.473Z,102887.13
2023-01-22T19:34:24.688Z,102877.50
2023-01-22T19:36:54.389Z,102882.66
2023-01-22T19:39:22.461Z,102870.06
2023-01-22T19:41:50.305Z,102881.31
2023-01-22T19:44:18.438Z,102883.75
2023-01-22T19:46:47.852Z,102877.91
2023-01-22T19:49:15.637Z,102889.50
2023-01-22T19:51:43.561Z,102878.88
2023-01-22T19:54:12.018Z,102884.03
2023-01-22T19:56:42.327Z,102894.38
2023-01-22T19:59:12.964Z,102886.75
2023-01-22T20:01:40.792Z,102876.31
2023-01-22T20:04:14.343Z,102880.59
2023-01-22T20:06:45.163Z,102889.47
2023-01-22T20:09:13.268Z,102884.31
2023-01-22T20:11:41.179Z,102892.16
2023-01-22T20:14:08.947Z,102892.16
2023-01-22T20:16:36.770Z,102891.22
2023-01-22T20:19:04.886Z,102889.22
2023-01-22T20:21:34.133Z,102901.03
2023-01-22T20:24:01.917Z,102899.13
2023-01-22T20:26:29.631Z,102892.19
2023-01-22T20:28:57.384Z,102893.13
2023-01-22T20:31:25.503Z,102897.66
2023-01-22T20:33:55.535Z,102905.34
2023-01-22T20:36:24.508Z,102914.31
2023-01-22T20:38:54.559Z,102915.97
2023-01-22T20:41:23.940Z,102916.81
2023-01-22T20:43:51.782Z,102909.63
2023-01-22T20:46:21.376Z,102915.72
2023-01-22T20:48:50.369Z,102917.63
2023-01-22T20:51:20.844Z,102927.03
2023-01-22T20:53:50.506Z,102925.53
2023-01-22T20:56:22.626Z,102926.63
2023-01-22T20:58:55.285Z,102918.63
2023-01-22T21:01:23.085Z,102922.97
2023-01-22T21:03:50.960Z,102924.63
2023-01-22T21:06:20.862Z,102924.78
2023-01-22T21:08:51.352Z,102926.66
2023-01-22T21:11:22.067Z,102935.19
2023-01-22T21:13:51.643Z,102929.78
2023-01-22T21:16:23.067Z,102928.81
2023-01-22T21:18:50.906Z,102933.06
2023-01-22T21:21:20.077Z,102935.44
2023-01-22T21:23:48.936Z,102938.06
2023-01-22T21:26:19.171Z,102940.38
2023-01-22T21:28:49.283Z,102930.34
2023-01-22T21:31:20.063Z,102938.97
2023-01-22T21:33:49.449Z,102940.75
2023-01-22T21:36:18.453Z,102937.13
2023-01-22T21:38:47.683Z,102942.16
2023-01-22T21:41:18.251Z,102947.56
2023-01-22T21:44:06.068Z,102952.66
2023-01-22T21:46:37.256Z,102938.38
2023-01-22T21:49:16.284Z,102934.63
2023-01-22T21:51:46.293Z,102945.84
2023-01-22T21:54:15.186Z,102944.66
2023-01-22T21:56:43.102Z,102938.50
2023-01-22T21:59:12.561Z,102936.75
2023-01-22T22:01:40.691Z,102926.88
2023-01-22T22:04:09.774Z,102925.38
2023-01-22T22:06:38.034Z,102924.72
2023-01-22T22:09:07.921Z,102910.59
2023-01-22T22:11:35.771Z,102915.94
2023-01-22T22:14:05.662Z,102921.06
2023-01-22T22:16:35.207Z,102919.78
2023-01-22T22:19:03.007Z,102921.16
2023-01-22T22:21:31.774Z,102919.53
2023-01-22T22:23:59.546Z,102918.72
2023-01-22T22:26:27.553Z,102916.16
2023-01-22T22:28:55.718Z,102925.81
2023-01-22T22:31:24.052Z,102920.25
2023-01-22T22:33:55.585Z,102929.75
2023-01-22T22:36:25.208Z,102935.00
2023-01-22T22:38:53.197Z,102929.63
2023-01-22T22:41:22.758Z,102927.16
2023-01-22T22:43:52.623Z,102929.03
2023-01-22T22:46:22.900Z,102930.91
2023-01-22T22:48:53.278Z,102930.91
2023-01-22T22:51:23.573Z,102931.47
2023-01-22T22:53:54.360Z,102935.69
2023-01-22T22:56:22.485Z,102933.25
2023-01-22T22:58:50.257Z,102934.91
2023-01-22T23:01:19.831Z,102933.97
2023-01-22T23:03:47.844Z,102936.66
2023-01-22T23:06:21.253Z,102935.00
2023-01-22T23:08:52.370Z,102931.53
2023-01-22T23:11:22.568Z,102940.31
2023-01-22T23:13:50.540Z,102938.38
2023-01-22T23:16:20.659Z,102933.94
2023-01-22T23:18:50.001Z,102933.88
2023-01-22T23:21:21.193Z,102932.19
2023-01-22T23:23:49.119Z,102927.00
2023-01-22T23:26:19.561Z,102921.59
2023-01-22T23:28:48.474Z,102907.78
2023-01-22T23:31:17.976Z,102896.25
2023-01-22T23:33:45.741Z,102886.66
2023-01-22T23:36:15.521Z,102877.94
2023-01-22T23:38:45.796Z,102870.94
2023-01-22T23:41:16.767Z,102872.63
2023-01-22T23:43:44.826Z,102868.13
2023-01-22T23:46:15.256Z,102852.16
2023-01-22T23:48:43.509Z,102856.63
2023-01-22T23:51:13.354Z,102852.16
2023-01-22T23:53:43.059Z,102860.00
2023-01-22T23:56:13.347Z,102853.78
2023-01-22T23:58:41.817Z,102858.06
